Time;durP1;ratioP1;P1;durP2;ratioP2;P2;SDS_P1;SDS_P2;PMS_P1;PMS_P2;Temp;Humidity;BMP_temperature;BMP_pressure;BME280_temperature;BME280_humidity;BME280_pressure;Samples;Min_cycle;Max_cycle;Signal;HPM_P1;HPM_P2
2023/06/03 00:01:19;;;;;;;;;;;18.90;65.40;;;;;;6100837;23;19911;-92
2023/06/03 00:03:46;;;;;;;;;;;18.90;65.50;;;;;;6100186;23;19909;-93
2023/06/03 00:06:12;;;;;;;;;;;18.90;65.50;;;;;;6101040;23;19905;-92
2023/06/03 00:08:38;;;;;;;;;;;18.90;65.50;;;;;;6101336;23;19941;-92
2023/06/03 00:11:04;;;;;;;;;;;18.90;65.40;;;;;;6101238;23;19909;-93
2023/06/03 00:13:30;;;;;;;;;;;18.90;65.50;;;;;;6101117;23;19928;-93
2023/06/03 00:15:55;;;;;;;;;;;18.90;65.50;;;;;;6100287;23;19933;-93
2023/06/03 00:18:21;;;;;;;;;;;18.90;65.60;;;;;;6100620;23;20286;-92
2023/06/03 00:20:47;;;;;;;;;;;18.90;65.50;;;;;;6101079;23;20320;-93
2023/06/03 00:23:16;;;;;;;;;;;18.90;65.60;;;;;;6103849;23;19916;-92
2023/06/03 00:25:42;;;;;;;;;;;18.90;65.60;;;;;;6125789;23;20499;-93
2023/06/03 00:28:08;;;;;;;;;;;18.90;65.60;;;;;;6106295;23;19984;-93
2023/06/03 00:30:33;;;;;;;;;;;18.90;65.70;;;;;;6102129;23;20208;-93
2023/06/03 00:33:00;;;;;;;;;;;18.90;65.70;;;;;;6125475;23;19913;-93
2023/06/03 00:35:25;;;;;;;;;;;18.90;65.70;;;;;;6125998;23;19905;-93
2023/06/03 00:37:51;;;;;;;;;;;18.90;65.70;;;;;;6124719;23;20334;-94
2023/06/03 00:40:17;;;;;;;;;;;18.90;65.70;;;;;;6125323;23;19905;-93
2023/06/03 00:42:43;;;;;;;;;;;18.80;65.70;;;;;;6124886;23;19905;-93
2023/06/03 00:45:08;;;;;;;;;;;18.80;65.70;;;;;;6125029;23;19909;-93
2023/06/03 00:47:34;;;;;;;;;;;18.80;65.80;;;;;;6124869;23;20388;-93
2023/06/03 00:50:00;;;;;;;;;;;18.80;65.80;;;;;;6125143;23;19920;-93
2023/06/03 00:52:26;;;;;;;;;;;18.80;65.80;;;;;;6124622;23;19967;-92
2023/06/03 00:54:52;;;;;;;;;;;18.80;65.80;;;;;;6124310;23;19965;-93
2023/06/03 00:57:20;;;;;;;;;;;18.80;65.80;;;;;;6101280;23;19941;-93
2023/06/03 00:59:45;;;;;;;;;;;18.80;65.80;;;;;;6125877;23;19905;-94
2023/06/03 01:02:12;;;;;;;;;;;18.80;65.90;;;;;;6124841;23;20278;-94
2023/06/03 01:04:38;;;;;;;;;;;18.80;65.80;;;;;;6124134;23;19955;-93
2023/06/03 01:07:10;;;;;;;;;;;18.70;65.80;;;;;;6124073;23;19912;-92
2023/06/03 01:09:35;;;;;;;;;;;18.70;65.80;;;;;;6125003;23;19912;-92
2023/06/03 01:12:01;;;;;;;;;;;18.70;65.70;;;;;;6124931;23;19920;-93
2023/06/03 01:14:29;;;;;;;;;;;18.70;65.80;;;;;;6124299;23;19913;-93
2023/06/03 01:16:57;;;;;;;;;;;18.70;65.70;;;;;;6124504;23;19937;-93
2023/06/03 01:19:34;;;;;;;;;;;18.70;65.90;;;;;;6124871;23;19940;-92
2023/06/03 01:22:02;;;;;;;;;;;18.70;65.80;;;;;;6125205;23;19911;-93
2023/06/03 01:24:30;;;;;;;;;;;18.70;65.70;;;;;;6124536;23;19913;-93
2023/06/03 01:26:56;;;;;;;;;;;18.70;65.60;;;;;;6124432;23;20719;-93
2023/06/03 01:29:22;;;;;;;;;;;18.70;65.80;;;;;;6124650;23;19937;-93
2023/06/03 01:31:47;;;;;;;;;;;18.70;65.80;;;;;;6125296;23;19905;-92
2023/06/03 01:34:13;;;;;;;;;;;18.70;65.80;;;;;;6124445;23;19967;-93
2023/06/03 01:36:39;;;;;;;;;;;18.60;65.80;;;;;;6124461;23;20315;-91
2023/06/03 01:39:04;;;;;;;;;;;18.60;65.70;;;;;;6123847;23;19992;-93
2023/06/03 01:41:31;;;;;;;;;;;18.60;65.70;;;;;;6125055;23;20271;-93
2023/06/03 01:43:57;;;;;;;;;;;18.60;65.90;;;;;;6124561;23;19912;-92
2023/06/03 01:46:23;;;;;;;;;;;18.60;65.80;;;;;;6125380;23;19905;-93
2023/06/03 01:48:49;;;;;;;;;;;18.60;65.80;;;;;;6127184;23;19905;-92
2023/06/03 01:51:15;;;;;;;;;;;18.60;65.60;;;;;;6126148;23;19909;-92
2023/06/03 01:53:40;;;;;;;;;;;18.60;65.80;;;;;;6125186;23;19920;-93
2023/06/03 01:56:06;;;;;;;;;;;18.60;65.80;;;;;;6124331;23;19952;-92
2023/06/03 01:58:32;;;;;;;;;;;18.60;65.90;;;;;;6124526;23;19905;-93
2023/06/03 02:00:57;;;;;;;;;;;18.60;65.80;;;;;;6124657;23;19905;-92
2023/06/03 02:03:23;;;;;;;;;;;18.60;66.00;;;;;;6124203;23;20469;-93
2023/06/03 02:05:48;;;;;;;;;;;18.60;65.80;;;;;;6124953;23;19932;-92
2023/06/03 02:08:17;;;;;;;;;;;18.60;65.80;;;;;;6124718;23;19916;-92
2023/06/03 02:10:43;;;;;;;;;;;18.60;65.90;;;;;;6123554;23;20318;-92
2023/06/03 02:13:08;;;;;;;;;;;18.60;65.90;;;;;;6122994;23;19913;-92
2023/06/03 02:15:34;;;;;;;;;;;18.50;65.80;;;;;;6123956;23;19912;-94
2023/06/03 02:17:59;;;;;;;;;;;18.50;65.80;;;;;;6123744;23;20338;-92
2023/06/03 02:20:25;;;;;;;;;;;18.60;65.80;;;;;;6123912;23;19909;-92
2023/06/03 02:22:53;;;;;;;;;;;18.50;65.70;;;;;;6124452;23;19909;-92
2023/06/03 02:25:20;;;;;;;;;;;18.50;65.80;;;;;;6122612;23;19909;-92
2023/06/03 02:27:45;;;;;;;;;;;18.50;65.80;;;;;;6122759;23;19978;-93
2023/06/03 02:30:11;;;;;;;;;;;18.50;65.80;;;;;;6122637;23;20315;-91
2023/06/03 02:32:37;;;;;;;;;;;18.50;65.50;;;;;;6126374;23;19932;-93
2023/06/03 02:35:02;;;;;;;;;;;18.50;65.80;;;;;;6124913;23;19909;-92
2023/06/03 02:37:28;;;;;;;;;;;18.50;65.70;;;;;;6124043;23;19940;-93
2023/06/03 02:39:53;;;;;;;;;;;18.40;65.80;;;;;;6125586;23;19909;-92
2023/06/03 02:42:20;;;;;;;;;;;18.50;65.80;;;;;;6125957;23;19905;-93
2023/06/03 02:44:46;;;;;;;;;;;18.40;65.50;;;;;;6126479;23;19933;-92
2023/06/03 02:47:11;;;;;;;;;;;18.40;65.50;;;;;;6126041;23;19953;-92
2023/06/03 02:49:37;;;;;;;;;;;18.50;65.40;;;;;;6126113;23;19916;-92
2023/06/03 02:52:03;;;;;;;;;;;18.40;65.60;;;;;;6101822;23;19909;-92
2023/06/03 02:54:28;;;;;;;;;;;18.40;65.80;;;;;;6125378;23;20242;-93
2023/06/03 02:56:54;;;;;;;;;;;18.40;65.40;;;;;;6125804;23;19988;-91
2023/06/03 02:59:19;;;;;;;;;;;18.40;66.40;;;;;;6125712;23;20306;-92
2023/06/03 03:01:45;;;;;;;;;;;18.40;65.30;;;;;;6125675;23;19909;-93
2023/06/03 03:04:10;;;;;;;;;;;18.40;65.30;;;;;;6125913;23;19928;-93
2023/06/03 03:06:37;;;;;;;;;;;18.40;65.70;;;;;;6125454;23;19927;-93
2023/06/03 03:09:03;;;;;;;;;;;18.40;65.30;;;;;;6125277;23;19905;-92
2023/06/03 03:11:28;;;;;;;;;;;18.40;65.60;;;;;;6125899;23;19905;-92
2023/06/03 03:13:55;;;;;;;;;;;18.30;65.40;;;;;;6126417;23;19909;-92
2023/06/03 03:16:21;;;;;;;;;;;18.40;65.50;;;;;;6125799;23;20346;-92
2023/06/03 03:18:47;;;;;;;;;;;18.30;65.40;;;;;;6126064;23;19912;-93
2023/06/03 03:21:13;;;;;;;;;;;18.30;65.40;;;;;;6126786;23;19905;-93
2023/06/03 03:23:38;;;;;;;;;;;18.30;65.60;;;;;;6126404;23;19988;-92
2023/06/03 03:26:06;;;;;;;;;;;18.30;65.40;;;;;;6125343;23;19908;-92
2023/06/03 03:28:32;;;;;;;;;;;18.30;65.50;;;;;;6125014;23;20334;-94
2023/06/03 03:30:57;;;;;;;;;;;18.30;65.50;;;;;;6125379;23;19905;-93
2023/06/03 03:33:23;;;;;;;;;;;18.30;65.60;;;;;;6125568;23;20335;-92
2023/06/03 03:35:49;;;;;;;;;;;18.30;65.60;;;;;;6125360;23;19905;-94
2023/06/03 03:38:15;;;;;;;;;;;18.30;65.60;;;;;;6125691;23;19955;-93
2023/06/03 03:40:40;;;;;;;;;;;18.30;65.60;;;;;;6125849;23;19960;-92
2023/06/03 03:43:13;;;;;;;;;;;18.30;65.60;;;;;;6126076;23;19912;-94
2023/06/03 03:45:39;;;;;;;;;;;18.30;65.60;;;;;;6127201;23;19909;-92
2023/06/03 03:48:06;;;;;;;;;;;19.20;66.00;;;;;;6126364;23;19971;-93
2023/06/03 03:50:45;;;;;;;;;;;18.20;65.50;;;;;;6125802;23;19912;-92
2023/06/03 03:53:12;;;;;;;;;;;18.20;65.50;;;;;;6126301;23;19909;-93
2023/06/03 03:55:42;;;;;;;;;;;18.20;65.50;;;;;;6125041;23;19916;-92
2023/06/03 03:58:15;;;;;;;;;;;18.30;65.90;;;;;;6125916;23;19984;-92
2023/06/03 04:00:43;;;;;;;;;;;18.30;65.80;;;;;;6125490;23;19979;-93
2023/06/03 04:03:11;;;;;;;;;;;18.20;65.60;;;;;;6124948;23;19905;-92
2023/06/03 04:05:36;;;;;;;;;;;18.20;65.70;;;;;;6125583;23;19905;-93
2023/06/03 04:08:05;;;;;;;;;;;18.20;65.60;;;;;;6125511;23;19959;-93
2023/06/03 04:10:32;;;;;;;;;;;18.20;65.70;;;;;;6123664;23;19912;-92
2023/06/03 04:12:58;;;;;;;;;;;18.20;65.70;;;;;;6125090;23;19916;-92
2023/06/03 04:15:30;;;;;;;;;;;18.20;65.80;;;;;;6125195;23;19913;-91
2023/06/03 04:17:56;;;;;;;;;;;18.10;65.70;;;;;;6124652;23;19915;-94
2023/06/03 04:20:38;;;;;;;;;;;18.20;65.90;;;;;;6125539;23;19912;-93
2023/06/03 04:23:05;;;;;;;;;;;18.20;65.70;;;;;;6125149;23;19924;-92
2023/06/03 04:25:32;;;;;;;;;;;18.20;65.90;;;;;;6125374;23;20266;-92
2023/06/03 04:27:57;;;;;;;;;;;18.20;65.80;;;;;;6124774;23;19909;-94
2023/06/03 04:30:23;;;;;;;;;;;18.20;66.10;;;;;;6124780;23;19925;-93
2023/06/03 04:32:49;;;;;;;;;;;18.20;66.30;;;;;;6122951;23;20279;-92
2023/06/03 04:35:14;;;;;;;;;;;18.40;66.40;;;;;;6125353;23;19905;-93
2023/06/03 04:37:40;;;;;;;;;;;18.20;66.10;;;;;;6124061;23;19905;-93
2023/06/03 04:40:08;;;;;;;;;;;18.20;66.20;;;;;;6124556;23;20347;-93
2023/06/03 04:42:34;;;;;;;;;;;18.20;66.20;;;;;;6126076;23;19905;-93
2023/06/03 04:45:01;;;;;;;;;;;18.60;66.60;;;;;;6125662;23;19912;-93
2023/06/03 04:47:28;;;;;;;;;;;18.20;66.30;;;;;;6125319;23;19905;-93
2023/06/03 04:49:54;;;;;;;;;;;18.20;66.50;;;;;;6124782;23;19912;-92
2023/06/03 04:52:20;;;;;;;;;;;18.20;66.20;;;;;;6124784;23;20311;-93
2023/06/03 04:54:46;;;;;;;;;;;18.30;66.50;;;;;;6125940;23;19992;-91
2023/06/03 04:57:11;;;;;;;;;;;18.20;66.30;;;;;;6125087;23;19909;-94
2023/06/03 04:59:37;;;;;;;;;;;18.20;67.40;;;;;;6100066;23;19913;-93
2023/06/03 05:02:02;;;;;;;;;;;18.30;66.50;;;;;;6124593;23;19905;-92
2023/06/03 05:04:29;;;;;;;;;;;18.30;66.60;;;;;;6123956;23;19956;-92
2023/06/03 05:06:55;;;;;;;;;;;18.30;66.50;;;;;;6124603;23;19988;-91
2023/06/03 05:09:21;;;;;;;;;;;18.30;66.50;;;;;;6123988;23;19905;-91
2023/06/03 05:11:47;;;;;;;;;;;18.30;66.50;;;;;;6125851;23;19913;-92
2023/06/03 05:14:12;;;;;;;;;;;18.30;66.50;;;;;;6125009;23;19924;-92
2023/06/03 05:16:38;;;;;;;;;;;18.30;66.40;;;;;;6125173;23;19905;-93
2023/06/03 05:19:04;;;;;;;;;;;18.30;66.40;;;;;;6123994;23;19905;-92
2023/06/03 05:21:30;;;;;;;;;;;18.30;66.30;;;;;;6123504;23;20338;-91
2023/06/03 05:23:55;;;;;;;;;;;18.40;66.40;;;;;;6124192;23;19917;-92
2023/06/03 05:26:21;;;;;;;;;;;18.40;66.40;;;;;;6123808;23;19909;-92
2023/06/03 05:28:48;;;;;;;;;;;18.40;66.40;;;;;;6123958;23;19944;-92
2023/06/03 05:31:14;;;;;;;;;;;18.40;66.40;;;;;;6124735;23;19905;-92
2023/06/03 05:33:40;;;;;;;;;;;18.40;66.30;;;;;;6124887;23;19915;-92
2023/06/03 05:36:05;;;;;;;;;;;18.40;66.40;;;;;;6126168;23;19909;-92
2023/06/03 05:38:31;;;;;;;;;;;18.50;66.30;;;;;;6126240;23;19960;-92
2023/06/03 05:40:57;;;;;;;;;;;18.40;66.30;;;;;;6126033;23;20222;-92
2023/06/03 05:43:25;;;;;;;;;;;18.50;66.20;;;;;;6126049;23;19945;-93
2023/06/03 05:45:51;;;;;;;;;;;18.50;66.20;;;;;;6125397;23;19905;-91
2023/06/03 05:48:17;;;;;;;;;;;18.50;66.10;;;;;;6125719;23;19912;-93
2023/06/03 05:50:50;;;;;;;;;;;18.50;66.00;;;;;;6124370;23;19909;-92
2023/06/03 05:53:18;;;;;;;;;;;18.50;66.00;;;;;;6124610;23;19997;-92
2023/06/03 05:55:43;;;;;;;;;;;18.60;66.00;;;;;;6123358;23;20460;-93
2023/06/03 05:58:09;;;;;;;;;;;18.60;65.90;;;;;;6124354;23;19912;-93
2023/06/03 06:00:34;;;;;;;;;;;18.60;65.80;;;;;;6124285;23;20302;-92
2023/06/03 06:03:00;;;;;;;;;;;18.70;65.80;;;;;;6124435;23;20311;-92
2023/06/03 06:05:25;;;;;;;;;;;18.70;65.70;;;;;;6124306;23;19905;-92
2023/06/03 06:07:51;;;;;;;;;;;18.70;65.70;;;;;;6125186;23;19905;-93
2023/06/03 06:10:17;;;;;;;;;;;18.70;65.60;;;;;;6124185;23;20227;-93
2023/06/03 06:12:42;;;;;;;;;;;18.80;65.60;;;;;;6124899;23;20243;-93
2023/06/03 06:15:08;;;;;;;;;;;18.80;65.40;;;;;;6127845;23;19920;-93
2023/06/03 06:17:34;;;;;;;;;;;18.80;65.30;;;;;;6125185;23;19911;-92
2023/06/03 06:20:02;;;;;;;;;;;18.90;65.30;;;;;;6126458;23;19908;-93
2023/06/03 06:22:28;;;;;;;;;;;18.90;65.30;;;;;;6126696;23;19905;-92
2023/06/03 06:24:53;;;;;;;;;;;18.90;65.20;;;;;;6101846;23;19975;-93
2023/06/03 06:27:19;;;;;;;;;;;18.90;65.20;;;;;;6129110;23;19921;-93
2023/06/03 06:29:44;;;;;;;;;;;18.90;65.80;;;;;;6102491;23;19909;-93
2023/06/03 06:32:11;;;;;;;;;;;19.00;65.10;;;;;;6102557;23;19913;-90
2023/06/03 06:34:38;;;;;;;;;;;19.00;65.30;;;;;;6102231;23;19919;-89
2023/06/03 06:37:04;;;;;;;;;;;19.00;64.60;;;;;;6101845;23;20322;-89
2023/06/03 06:39:32;;;;;;;;;;;19.00;63.70;;;;;;6102258;23;19984;-88
2023/06/03 06:42:11;;;;;;;;;;;18.90;63.70;;;;;;6127355;23;19905;-89
2023/06/03 06:44:46;;;;;;;;;;;19.00;63.70;;;;;;6127162;23;19925;-89
2023/06/03 06:47:14;;;;;;;;;;;19.00;63.50;;;;;;6101390;23;20346;-88
2023/06/03 06:49:39;;;;;;;;;;;19.00;63.50;;;;;;6101489;23;19960;-89
2023/06/03 06:52:08;;;;;;;;;;;19.00;63.20;;;;;;6101200;23;19909;-88
2023/06/03 06:54:33;;;;;;;;;;;19.00;63.20;;;;;;6127196;23;19913;-87
2023/06/03 06:56:59;;;;;;;;;;;19.00;63.00;;;;;;6101434;23;19928;-88
2023/06/03 06:59:25;;;;;;;;;;;19.10;62.90;;;;;;6127828;23;19913;-89
2023/06/03 07:01:50;;;;;;;;;;;19.10;62.70;;;;;;6103067;23;19912;-89
2023/06/03 07:04:16;;;;;;;;;;;19.20;62.80;;;;;;6102647;23;19905;-88
2023/06/03 07:06:41;;;;;;;;;;;19.20;62.60;;;;;;6102459;23;19976;-90
2023/06/03 07:09:07;;;;;;;;;;;19.20;62.60;;;;;;6102336;23;20057;-90
2023/06/03 07:11:36;;;;;;;;;;;19.20;62.50;;;;;;6100333;23;19944;-88
2023/06/03 07:14:02;;;;;;;;;;;19.30;62.50;;;;;;6101056;23;19917;-89
2023/06/03 07:16:27;;;;;;;;;;;19.30;62.50;;;;;;6101272;23;19905;-88
2023/06/03 07:18:53;;;;;;;;;;;19.30;62.60;;;;;;6101310;23;19996;-88
2023/06/03 07:21:23;;;;;;;;;;;19.30;62.70;;;;;;6101392;23;19988;-93
2023/06/03 07:23:49;;;;;;;;;;;19.30;62.50;;;;;;6112673;23;19917;-89
2023/06/03 07:26:15;;;;;;;;;;;19.40;62.60;;;;;;6124857;23;19919;-90
2023/06/03 07:28:40;;;;;;;;;;;19.40;62.70;;;;;;6126147;23;20326;-92
2023/06/03 07:31:06;;;;;;;;;;;19.50;62.60;;;;;;6126358;23;19964;-91
2023/06/03 07:33:37;;;;;;;;;;;19.60;62.80;;;;;;6125506;23;19909;-90
2023/06/03 07:36:03;;;;;;;;;;;19.60;62.60;;;;;;6125833;23;19953;-92
2023/06/03 07:38:38;;;;;;;;;;;19.60;62.50;;;;;;6125590;23;19905;-90
2023/06/03 07:41:07;;;;;;;;;;;19.60;62.50;;;;;;6126152;23;19905;-90
2023/06/03 07:43:38;;;;;;;;;;;19.70;62.30;;;;;;6125118;23;19992;-90
2023/06/03 07:46:04;;;;;;;;;;;19.70;62.30;;;;;;6124041;23;19905;-91
2023/06/03 07:48:30;;;;;;;;;;;19.70;62.20;;;;;;6126987;23;19912;-91
2023/06/03 07:50:55;;;;;;;;;;;19.70;62.20;;;;;;6126534;23;20352;-90
2023/06/03 07:53:24;;;;;;;;;;;19.80;62.30;;;;;;6125031;23;19929;-92
2023/06/03 07:55:50;;;;;;;;;;;19.80;62.20;;;;;;6125259;23;19946;-90
2023/06/03 07:58:16;;;;;;;;;;;19.80;62.10;;;;;;6125266;23;19962;-92
2023/06/03 08:00:43;;;;;;;;;;;19.80;62.20;;;;;;6127021;23;19905;-91
2023/06/03 08:03:08;;;;;;;;;;;19.90;62.20;;;;;;6125317;23;19912;-92
2023/06/03 08:05:35;;;;;;;;;;;19.90;62.30;;;;;;6124891;23;19951;-93
2023/06/03 08:08:03;;;;;;;;;;;20.00;62.30;;;;;;6126893;23;19913;-90
2023/06/03 08:10:28;;;;;;;;;;;20.00;62.50;;;;;;6125361;23;19912;-91
2023/06/03 08:12:54;;;;;;;;;;;20.10;62.20;;;;;;6125249;23;19909;-92
2023/06/03 08:15:32;;;;;;;;;;;20.20;62.20;;;;;;6101933;23;19913;-89
2023/06/03 08:17:59;;;;;;;;;;;20.30;62.30;;;;;;6126053;23;19948;-92
2023/06/03 08:20:28;;;;;;;;;;;20.30;62.50;;;;;;6126780;23;19940;-95
2023/06/03 08:22:55;;;;;;;;;;;20.30;62.50;;;;;;6126888;23;19937;-95
2023/06/03 08:25:21;;;;;;;;;;;20.40;62.50;;;;;;6126973;23;19912;-93
2023/06/03 08:28:12;;;;;;;;;;;20.50;62.50;;;;;;6137394;23;19907;-96
2023/06/03 08:30:38;;;;;;;;;;;20.50;62.40;;;;;;6075652;23;20378;-89
2023/06/03 08:33:03;;;;;;;;;;;20.50;62.60;;;;;;6126254;23;19921;-86
2023/06/03 08:35:29;;;;;;;;;;;20.50;62.60;;;;;;6122001;23;19984;-86
2023/06/03 08:37:56;;;;;;;;;;;20.50;62.80;;;;;;6120986;23;19913;-88
2023/06/03 08:40:25;;;;;;;;;;;20.50;62.70;;;;;;6124618;23;19905;-85
2023/06/03 08:42:53;;;;;;;;;;;20.50;62.60;;;;;;6122312;23;19956;-86
2023/06/03 08:45:20;;;;;;;;;;;20.50;62.50;;;;;;6122870;23;19912;-86
2023/06/03 08:48:01;;;;;;;;;;;20.50;62.80;;;;;;6122821;23;19908;-89
2023/06/03 08:50:27;;;;;;;;;;;20.60;63.00;;;;;;6121312;23;20304;-86
2023/06/03 08:52:53;;;;;;;;;;;20.70;62.70;;;;;;6124807;23;19919;-86
2023/06/03 08:55:20;;;;;;;;;;;20.70;62.90;;;;;;6124792;23;20279;-85
2023/06/03 08:57:49;;;;;;;;;;;20.70;62.90;;;;;;6124779;23;19908;-85
2023/06/03 09:00:17;;;;;;;;;;;20.80;62.80;;;;;;6125684;23;19912;-85
2023/06/03 09:02:43;;;;;;;;;;;20.80;62.50;;;;;;6123485;23;20242;-86
2023/06/03 09:05:08;;;;;;;;;;;20.80;62.50;;;;;;6123322;23;19905;-85
2023/06/03 09:07:35;;;;;;;;;;;20.80;62.90;;;;;;6122605;23;19932;-86
2023/06/03 09:10:02;;;;;;;;;;;20.80;63.20;;;;;;6123758;23;19909;-86
2023/06/03 09:12:27;;;;;;;;;;;20.80;62.80;;;;;;6123014;23;19905;-84
2023/06/03 09:14:57;;;;;;;;;;;20.90;63.30;;;;;;6123019;23;20043;-85
2023/06/03 09:17:24;;;;;;;;;;;20.90;63.10;;;;;;6124225;23;19905;-85
2023/06/03 09:19:50;;;;;;;;;;;20.90;63.00;;;;;;6123669;23;19905;-84
2023/06/03 09:22:16;;;;;;;;;;;20.90;62.80;;;;;;6124344;23;19915;-83
2023/06/03 09:24:42;;;;;;;;;;;20.90;63.00;;;;;;6122671;23;19913;-86
2023/06/03 09:27:07;;;;;;;;;;;20.90;63.30;;;;;;6122345;23;19936;-85
2023/06/03 09:29:33;;;;;;;;;;;20.90;63.00;;;;;;6122986;23;19912;-86
2023/06/03 09:31:59;;;;;;;;;;;20.90;63.30;;;;;;6124897;23;20236;-85
2023/06/03 09:34:25;;;;;;;;;;;20.90;63.60;;;;;;6124768;23;19913;-86
2023/06/03 09:36:51;;;;;;;;;;;21.00;63.20;;;;;;6123866;23;19905;-89
2023/06/03 09:39:30;;;;;;;;;;;21.00;63.30;;;;;;6124430;23;20246;-86
2023/06/03 09:41:56;;;;;;;;;;;21.10;63.50;;;;;;6124057;23;19909;-86
2023/06/03 09:44:21;;;;;;;;;;;21.10;63.30;;;;;;6123679;23;19960;-85
2023/06/03 09:46:49;;;;;;;;;;;21.10;63.20;;;;;;6122181;23;19916;-83
2023/06/03 09:49:16;;;;;;;;;;;21.20;63.50;;;;;;6121952;23;19912;-84
2023/06/03 09:51:46;;;;;;;;;;;21.20;63.60;;;;;;6122010;23;19905;-86
2023/06/03 09:54:14;;;;;;;;;;;21.20;63.50;;;;;;6123777;23;19913;-86
2023/06/03 09:56:40;;;;;;;;;;;21.20;63.40;;;;;;6122462;23;19912;-86
2023/06/03 09:59:26;;;;;;;;;;;21.20;63.70;;;;;;6122345;23;19909;-86
2023/06/03 10:01:52;;;;;;;;;;;21.20;63.50;;;;;;6121596;23;20427;-85
2023/06/03 10:04:22;;;;;;;;;;;21.20;63.20;;;;;;6123612;23;19905;-85
2023/06/03 10:07:05;;;;;;;;;;;21.30;63.10;;;;;;6123296;23;19909;-88
2023/06/03 10:09:31;;;;;;;;;;;21.20;63.30;;;;;;6122623;23;19932;-85
2023/06/03 10:11:56;;;;;;;;;;;21.30;63.30;;;;;;6122123;23;20315;-86
2023/06/03 10:14:25;;;;;;;;;;;21.30;62.60;;;;;;6124046;23;19970;-87
2023/06/03 10:17:03;;;;;;;;;;;21.20;63.20;;;;;;6123974;23;19958;-86
2023/06/03 10:19:30;;;;;;;;;;;21.20;63.10;;;;;;6124549;23;19905;-85
2023/06/03 10:21:56;;;;;;;;;;;21.20;62.50;;;;;;6125719;23;19972;-86
2023/06/03 10:24:22;;;;;;;;;;;21.20;62.30;;;;;;6126131;23;19913;-88
2023/06/03 10:26:48;;;;;;;;;;;21.20;62.50;;;;;;6125698;23;19964;-86
2023/06/03 10:29:15;;;;;;;;;;;21.20;63.10;;;;;;6099370;23;19905;-86
2023/06/03 10:31:41;;;;;;;;;;;21.20;64.00;;;;;;6126182;23;19905;-86
2023/06/03 10:34:07;;;;;;;;;;;21.20;63.40;;;;;;6100400;23;19948;-86
2023/06/03 10:36:32;;;;;;;;;;;21.10;63.40;;;;;;6125228;23;20287;-86
2023/06/03 10:39:02;;;;;;;;;;;21.10;63.70;;;;;;6100305;23;19905;-85
2023/06/03 10:41:30;;;;;;;;;;;21.10;63.30;;;;;;6100137;23;19983;-86
2023/06/03 10:43:57;;;;;;;;;;;21.10;63.40;;;;;;6098847;23;20331;-87
2023/06/03 10:46:22;;;;;;;;;;;21.00;63.40;;;;;;6098294;23;19909;-87
2023/06/03 10:48:48;;;;;;;;;;;21.00;63.80;;;;;;6097903;23;20436;-87
2023/06/03 10:51:33;;;;;;;;;;;21.00;63.90;;;;;;6097828;23;19905;-86
2023/06/03 10:53:58;;;;;;;;;;;21.00;64.30;;;;;;6123995;23;20307;-86
2023/06/03 10:56:46;;;;;;;;;;;20.90;63.90;;;;;;6098307;23;19909;-86
2023/06/03 10:59:15;;;;;;;;;;;20.90;64.70;;;;;;6124942;23;19912;-85
2023/06/03 11:02:01;;;;;;;;;;;20.90;64.90;;;;;;6125756;23;19905;-87
2023/06/03 11:04:36;;;;;;;;;;;20.90;64.70;;;;;;6099526;23;20394;-86
2023/06/03 11:07:02;;;;;;;;;;;20.90;64.70;;;;;;6125218;23;19928;-86
2023/06/03 11:09:38;;;;;;;;;;;20.80;64.40;;;;;;6099705;23;19940;-85
2023/06/03 11:12:06;;;;;;;;;;;20.80;65.00;;;;;;6124919;23;19905;-85
2023/06/03 11:14:40;;;;;;;;;;;20.80;64.90;;;;;;6124703;23;20440;-85
2023/06/03 11:17:06;;;;;;;;;;;20.70;65.00;;;;;;6125459;23;19908;-84
2023/06/03 11:19:36;;;;;;;;;;;20.70;65.20;;;;;;6125380;23;19905;-86
2023/06/03 11:22:07;;;;;;;;;;;20.70;65.40;;;;;;6125296;23;19905;-85
2023/06/03 11:24:39;;;;;;;;;;;20.70;65.70;;;;;;6124960;23;19972;-85
2023/06/03 11:27:13;;;;;;;;;;;20.70;65.90;;;;;;6125311;23;19914;-87
2023/06/03 11:29:57;;;;;;;;;;;20.70;65.60;;;;;;6099303;23;19980;-86
2023/06/03 11:32:30;;;;;;;;;;;20.70;65.60;;;;;;6125035;23;19905;-85
2023/06/03 11:34:58;;;;;;;;;;;20.60;65.40;;;;;;6098791;23;19913;-87
2023/06/03 11:37:44;;;;;;;;;;;20.60;65.10;;;;;;6125149;23;19905;-86
2023/06/03 11:40:17;;;;;;;;;;;20.60;65.50;;;;;;6099087;23;19913;-86
2023/06/03 11:42:46;;;;;;;;;;;20.60;66.00;;;;;;6124619;23;19952;-86
2023/06/03 11:45:28;;;;;;;;;;;20.60;66.40;;;;;;6099304;23;19905;-86
2023/06/03 11:47:55;;;;;;;;;;;20.60;66.50;;;;;;6099586;23;20237;-84
2023/06/03 11:50:24;;;;;;;;;;;20.60;66.20;;;;;;6125108;23;19909;-85
2023/06/03 11:52:50;;;;;;;;;;;20.60;66.40;;;;;;6124000;23;19905;-84
2023/06/03 11:55:25;;;;;;;;;;;20.60;66.10;;;;;;6099131;23;19916;-85
2023/06/03 11:57:51;;;;;;;;;;;20.60;65.50;;;;;;6125050;23;20287;-86
2023/06/03 12:00:20;;;;;;;;;;;20.60;65.70;;;;;;6125107;23;19921;-86
2023/06/03 12:02:48;;;;;;;;;;;20.60;65.90;;;;;;6099070;23;20234;-87
2023/06/03 12:05:19;;;;;;;;;;;20.60;65.80;;;;;;6098560;23;19908;-85
2023/06/03 12:07:59;;;;;;;;;;;20.60;66.10;;;;;;6123681;23;20296;-85
2023/06/03 12:10:25;;;;;;;;;;;20.50;66.70;;;;;;6124586;23;19907;-84
2023/06/03 12:12:51;;;;;;;;;;;20.60;66.30;;;;;;6124585;23;19912;-83
2023/06/03 12:15:17;;;;;;;;;;;20.60;65.80;;;;;;6098432;23;19916;-84
2023/06/03 12:17:43;;;;;;;;;;;20.50;65.50;;;;;;6099831;23;19908;-85
2023/06/03 12:20:09;;;;;;;;;;;20.50;65.50;;;;;;6126827;23;19912;-86
2023/06/03 12:22:35;;;;;;;;;;;20.50;66.00;;;;;;6126470;23;19909;-85
2023/06/03 12:25:00;;;;;;;;;;;20.60;65.30;;;;;;6125447;23;19905;-84
2023/06/03 12:27:26;;;;;;;;;;;20.50;65.60;;;;;;6099495;23;20240;-85
2023/06/03 12:29:53;;;;;;;;;;;20.50;66.80;;;;;;6098782;23;19905;-85
2023/06/03 12:32:18;;;;;;;;;;;20.60;66.40;;;;;;6098281;23;20307;-84
2023/06/03 12:34:45;;;;;;;;;;;20.60;66.00;;;;;;6123958;23;20003;-86
2023/06/03 12:37:14;;;;;;;;;;;20.50;65.30;;;;;;6098083;23;20011;-84
2023/06/03 12:39:40;;;;;;;;;;;20.60;64.50;;;;;;6124340;23;19948;-85
2023/06/03 12:42:06;;;;;;;;;;;20.50;64.20;;;;;;6124273;23;20222;-85
2023/06/03 12:44:42;;;;;;;;;;;20.50;64.10;;;;;;6098366;23;19905;-85
2023/06/03 12:47:07;;;;;;;;;;;20.40;64.50;;;;;;6124058;23;19909;-84
2023/06/03 12:49:33;;;;;;;;;;;20.50;65.00;;;;;;6098720;23;19958;-85
2023/06/03 12:52:15;;;;;;;;;;;20.50;64.60;;;;;;6098644;23;19958;-85
2023/06/03 12:54:41;;;;;;;;;;;20.50;64.90;;;;;;6123975;23;19917;-85
2023/06/03 12:57:08;;;;;;;;;;;20.50;63.90;;;;;;6097960;23;19905;-85
2023/06/03 12:59:33;;;;;;;;;;;20.50;63.10;;;;;;6098481;23;19984;-86
2023/06/03 13:01:59;;;;;;;;;;;20.50;63.70;;;;;;6098427;23;20019;-85
2023/06/03 13:04:24;;;;;;;;;;;20.50;64.20;;;;;;6123317;23;19987;-86
2023/06/03 13:06:50;;;;;;;;;;;20.50;63.20;;;;;;6125241;23;19980;-85
2023/06/03 13:09:15;;;;;;;;;;;20.50;63.50;;;;;;6124908;23;19988;-86
2023/06/03 13:11:41;;;;;;;;;;;20.40;63.60;;;;;;6124435;23;19909;-85
2023/06/03 13:14:06;;;;;;;;;;;20.40;63.60;;;;;;6097694;23;19909;-85
2023/06/03 13:16:32;;;;;;;;;;;20.30;64.10;;;;;;6097747;23;19905;-85
2023/06/03 13:18:57;;;;;;;;;;;20.40;63.20;;;;;;6098472;23;20039;-84
2023/06/03 13:21:23;;;;;;;;;;;20.30;64.00;;;;;;6098345;23;19909;-83
2023/06/03 13:23:48;;;;;;;;;;;20.40;63.70;;;;;;6123586;23;19920;-86
2023/06/03 13:26:14;;;;;;;;;;;20.40;63.80;;;;;;6124010;23;19916;-86
2023/06/03 13:28:39;;;;;;;;;;;20.40;64.00;;;;;;6099169;23;19929;-86
2023/06/03 13:31:05;;;;;;;;;;;20.50;63.20;;;;;;6099900;23;19905;-85
2023/06/03 13:33:30;;;;;;;;;;;20.50;63.20;;;;;;6126051;23;19913;-86
2023/06/03 13:35:56;;;;;;;;;;;20.50;63.00;;;;;;6125391;23;19944;-84
2023/06/03 13:38:25;;;;;;;;;;;20.50;62.30;;;;;;6099670;23;20238;-84
2023/06/03 13:40:50;;;;;;;;;;;20.40;61.00;;;;;;6125699;23;19909;-86
2023/06/03 13:43:16;;;;;;;;;;;20.50;60.60;;;;;;6098606;23;19963;-83
2023/06/03 13:45:41;;;;;;;;;;;20.40;59.70;;;;;;6123673;23;19904;-84
2023/06/03 13:48:08;;;;;;;;;;;20.40;59.10;;;;;;6097940;23;19913;-85
2023/06/03 13:50:33;;;;;;;;;;;20.50;58.60;;;;;;6124560;23;19928;-86
2023/06/03 13:52:59;;;;;;;;;;;20.40;59.50;;;;;;6123571;23;19984;-86
2023/06/03 13:55:24;;;;;;;;;;;20.40;59.50;;;;;;6124046;23;19916;-85
2023/06/03 13:57:50;;;;;;;;;;;20.50;61.10;;;;;;6123324;23;19913;-85
2023/06/03 14:00:15;;;;;;;;;;;20.50;61.60;;;;;;6124444;23;19945;-86
2023/06/03 14:02:41;;;;;;;;;;;20.50;61.40;;;;;;6123829;23;19911;-85
2023/06/03 14:05:07;;;;;;;;;;;20.50;60.30;;;;;;6097462;23;19940;-85
2023/06/03 14:07:32;;;;;;;;;;;20.40;60.30;;;;;;6123922;23;19905;-85
2023/06/03 14:09:58;;;;;;;;;;;20.40;59.50;;;;;;6098355;23;19920;-85
2023/06/03 14:12:23;;;;;;;;;;;20.40;59.30;;;;;;6123319;23;19904;-85
2023/06/03 14:14:49;;;;;;;;;;;20.40;59.10;;;;;;6123475;23;19917;-84
2023/06/03 14:17:14;;;;;;;;;;;20.50;59.70;;;;;;6123940;23;19921;-86